River John, Canada
Current Conditions -  °F | °C
As of 2:00 PM on Monday 26 Jan 2015 (Local Time) from CYYG Reporting Station
Few Clouds Few Clouds  
Wind Chill:   Ceiling: Unl
Heat Index: 12°   Visibility: 15mi
Dew Point: -2°   Wind: 9mph
Humidity: 53%   Direction: 290°WNW
Pressure: 30.18"   Gusts: NA
Location:  45.73°N, 63.05°W
Report Text: CYYG 261800Z 29008KT 250V320 15SM FEW030 FEW250 M11/M19 A3018 RMK SC1CI1 SLP223
Loading
Personal Weather Stations






























Interactive Weather Map New forecast layout! Learn more

10-Day Weather Forecast

Advertisements
Track Severe Weather on mobile